createdAt,value
2019-01-10T00:00:41.850Z,97.50
2019-01-10T00:01:45.855Z,97.10
2019-01-10T00:02:49.894Z,97.80
2019-01-10T00:03:54.008Z,96.70
2019-01-10T00:04:57.985Z,98.40
2019-01-10T00:06:01.971Z,98.70
2019-01-10T00:07:06.087Z,97.40
2019-01-10T00:08:09.895Z,98.20
2019-01-10T00:09:13.781Z,97.80
2019-01-10T00:10:17.840Z,98.90
2019-01-10T00:11:21.700Z,99.70
2019-01-10T00:12:25.777Z,98.80
2019-01-10T00:13:29.797Z,97.50
2019-01-10T00:14:33.763Z,99.00
2019-01-10T00:15:37.733Z,99.60
2019-01-10T00:16:41.739Z,99.20
2019-01-10T00:17:45.742Z,99.20
2019-01-10T00:18:49.875Z,99.40
2019-01-10T00:19:53.789Z,98.70
2019-01-10T00:20:57.697Z,98.30
2019-01-10T00:22:01.716Z,99.00
2019-01-10T00:23:05.772Z,99.30
2019-01-10T00:24:09.661Z,99.70
2019-01-10T00:25:13.797Z,99.90
2019-01-10T00:26:17.899Z,99.40
2019-01-10T00:27:21.808Z,99.80
2019-01-10T00:28:25.815Z,99.90
2019-01-10T00:29:29.805Z,99.90
2019-01-10T00:30:33.825Z,99.90
2019-01-10T00:31:37.729Z,99.90
2019-01-10T00:32:41.632Z,99.90
2019-01-10T00:33:45.515Z,99.90
2019-01-10T00:34:49.396Z,99.90
2019-01-10T00:35:53.377Z,99.50
2019-01-10T00:36:57.297Z,98.70
2019-01-10T00:38:01.183Z,98.80
2019-01-10T00:39:07.062Z,99.90
2019-01-10T00:40:12.294Z,99.10
2019-01-10T00:41:16.339Z,98.00
2019-01-10T00:42:20.405Z,99.50
2019-01-10T00:43:24.369Z,99.10
2019-01-10T00:44:28.329Z,99.80
2019-01-10T00:45:32.240Z,99.40
2019-01-10T00:46:36.161Z,98.50
2019-01-10T00:47:39.947Z,98.40
2019-01-10T00:48:43.841Z,98.50
2019-01-10T00:49:47.839Z,98.00
2019-01-10T00:50:51.927Z,97.20
2019-01-10T00:51:56.027Z,98.00
2019-01-10T00:52:59.992Z,97.60
2019-01-10T00:54:03.783Z,97.50
2019-01-10T00:55:08.081Z,96.50
2019-01-10T00:56:11.973Z,98.10
2019-01-10T00:57:15.879Z,97.80
2019-01-10T00:58:20.015Z,97.40
2019-01-10T00:59:23.878Z,98.00
2019-01-10T01:00:28.082Z,97.70
2019-01-10T01:01:32.080Z,96.80
2019-01-10T01:02:36.099Z,98.00
2019-01-10T01:03:40.018Z,97.00
2019-01-10T01:04:43.927Z,96.60
2019-01-10T01:05:47.947Z,96.00
2019-01-10T01:06:51.954Z,97.30
2019-01-10T01:07:55.831Z,97.00
2019-01-10T01:09:00.357Z,96.50
2019-01-10T01:10:05.317Z,96.40
2019-01-10T01:11:09.414Z,96.60
2019-01-10T01:12:13.435Z,97.90
2019-01-10T01:13:17.320Z,96.60
2019-01-10T01:14:21.281Z,96.30
2019-01-10T01:15:25.247Z,96.60
2019-01-10T01:16:29.647Z,96.60
2019-01-10T01:17:33.531Z,96.40
2019-01-10T01:18:37.401Z,96.20
2019-01-10T01:19:41.453Z,95.90
2019-01-10T01:20:45.307Z,96.60
2019-01-10T01:21:49.299Z,96.60
2019-01-10T01:22:53.265Z,96.60
2019-01-10T01:23:57.266Z,96.60
2019-01-10T01:25:01.356Z,96.20
2019-01-10T01:26:05.440Z,97.40
2019-01-10T01:27:09.367Z,95.90
2019-01-10T01:28:13.361Z,96.60
2019-01-10T01:29:18.504Z,96.70
2019-01-10T01:30:24.437Z,95.70
2019-01-10T01:31:28.419Z,95.60
2019-01-10T01:32:32.424Z,95.30
2019-01-10T01:33:36.217Z,95.70
2019-01-10T01:34:40.003Z,95.80
2019-01-10T01:35:43.895Z,95.90
2019-01-10T01:36:47.934Z,96.30
2019-01-10T01:37:51.965Z,95.90
2019-01-10T01:38:55.979Z,95.70
2019-01-10T01:39:59.785Z,96.20
2019-01-10T01:41:03.795Z,95.80
2019-01-10T01:42:07.749Z,96.00
2019-01-10T01:43:11.618Z,95.80
2019-01-10T01:44:15.527Z,96.20
2019-01-10T01:45:19.993Z,95.20
2019-01-10T01:46:24.004Z,95.40
2019-01-10T01:47:27.791Z,96.10
2019-01-10T01:48:33.329Z,95.70
2019-01-10T01:49:37.329Z,96.10
2019-01-10T01:50:41.347Z,96.00
2019-01-10T01:51:45.339Z,95.60
2019-01-10T01:52:49.294Z,96.00
2019-01-10T01:53:53.201Z,95.90
2019-01-10T01:54:57.077Z,95.90
2019-01-10T01:56:01.173Z,96.00
2019-01-10T01:57:05.162Z,95.80
2019-01-10T01:58:09.165Z,95.10
2019-01-10T01:59:13.527Z,95.40
2019-01-10T02:00:19.640Z,94.90
2019-01-10T02:01:23.649Z,95.40
2019-01-10T02:02:46.672Z,95.40
2019-01-10T02:03:50.589Z,95.90
2019-01-10T02:04:54.395Z,95.80
2019-01-10T02:05:58.309Z,95.30
2019-01-10T02:07:02.233Z,94.70
2019-01-10T02:08:06.359Z,94.80
2019-01-10T02:09:10.504Z,95.10
2019-01-10T02:10:17.288Z,94.90
2019-01-10T02:11:21.264Z,95.00
2019-01-10T02:12:25.309Z,94.60
2019-01-10T02:13:29.101Z,94.30
2019-01-10T02:14:33.093Z,94.90
2019-01-10T02:15:37.061Z,95.00
2019-01-10T02:16:40.957Z,95.50
2019-01-10T02:17:49.346Z,95.10
2019-01-10T02:18:50.691Z,95.30
2019-01-10T02:19:54.695Z,95.20
2019-01-10T02:20:58.752Z,96.00
2019-01-10T02:22:02.849Z,95.90
2019-01-10T02:23:26.088Z,95.80
2019-01-10T02:24:30.082Z,96.00
2019-01-10T02:25:33.965Z,95.90
2019-01-10T02:26:37.958Z,96.30
2019-01-10T02:27:41.979Z,96.10
2019-01-10T02:28:45.977Z,96.50
2019-01-10T02:29:50.022Z,97.10
2019-01-10T02:30:53.970Z,97.30
2019-01-10T02:31:58.010Z,98.70
2019-01-10T02:33:02.014Z,97.70
2019-01-10T02:34:06.135Z,99.00
2019-01-10T02:35:10.029Z,99.60
2019-01-10T02:36:13.921Z,99.30
2019-01-10T02:37:17.936Z,99.80
2019-01-10T02:38:21.942Z,99.70
2019-01-10T02:39:26.052Z,99.50
2019-01-10T02:40:30.062Z,99.90
2019-01-10T02:41:34.064Z,99.90
2019-01-10T02:42:38.053Z,99.50
2019-01-10T02:43:41.943Z,99.10
2019-01-10T02:44:45.837Z,99.00
2019-01-10T02:45:49.959Z,98.20
2019-01-10T02:46:53.869Z,98.20
2019-01-10T02:47:57.906Z,97.90
2019-01-10T02:49:02.073Z,97.90
2019-01-10T02:50:07.317Z,97.70
2019-01-10T02:51:11.404Z,98.30
2019-01-10T02:52:15.470Z,98.70
2019-01-10T02:53:19.667Z,97.40
2019-01-10T02:54:23.999Z,96.50
2019-01-10T02:55:27.967Z,96.80
2019-01-10T02:56:31.940Z,97.30
2019-01-10T02:57:35.830Z,96.50
2019-01-10T02:58:40.159Z,97.40
2019-01-10T02:59:44.131Z,96.50
2019-01-10T03:00:48.057Z,96.00
2019-01-10T03:01:52.017Z,96.10
2019-01-10T03:02:55.818Z,96.60
2019-01-10T03:03:59.807Z,96.60
2019-01-10T03:05:03.859Z,95.90
2019-01-10T03:06:07.962Z,96.10
2019-01-10T03:07:12.022Z,96.60
2019-01-10T03:08:16.093Z,96.50
2019-01-10T03:09:20.082Z,95.60
2019-01-10T03:10:25.763Z,95.70
2019-01-10T03:11:30.553Z,95.70
2019-01-10T03:12:34.503Z,95.90
2019-01-10T03:13:57.638Z,95.80
2019-01-10T03:15:01.543Z,96.40
2019-01-10T03:16:05.572Z,95.70
2019-01-10T03:17:09.618Z,95.80
2019-01-10T03:18:13.591Z,95.60
2019-01-10T03:19:17.375Z,95.50
2019-01-10T03:20:22.336Z,95.30
2019-01-10T03:21:26.234Z,95.20
2019-01-10T03:22:30.234Z,95.40
2019-01-10T03:23:34.265Z,95.40
2019-01-10T03:24:38.166Z,95.60
2019-01-10T03:25:42.183Z,96.20
2019-01-10T03:26:46.069Z,95.70
2019-01-10T03:27:50.523Z,96.00
2019-01-10T03:28:54.449Z,95.80
2019-01-10T03:29:58.428Z,96.10
2019-01-10T03:31:02.461Z,95.30
2019-01-10T03:32:06.629Z,95.70
2019-01-10T03:33:10.652Z,95.40
2019-01-10T03:34:14.675Z,95.30
2019-01-10T03:35:18.677Z,96.20
2019-01-10T03:36:22.638Z,95.20
2019-01-10T03:37:26.705Z,95.30
2019-01-10T03:38:30.601Z,95.20
2019-01-10T03:39:34.656Z,95.40
2019-01-10T03:40:38.725Z,95.50
2019-01-10T03:41:42.693Z,95.20
2019-01-10T03:42:46.684Z,96.10
2019-01-10T03:43:50.665Z,96.30
2019-01-10T03:44:54.479Z,95.90
2019-01-10T03:45:58.483Z,96.20
2019-01-10T03:47:02.569Z,95.70
2019-01-10T03:48:06.687Z,95.30
2019-01-10T03:49:10.808Z,96.00
2019-01-10T03:50:15.319Z,96.00
2019-01-10T03:51:19.350Z,95.80
2019-01-10T03:52:23.264Z,96.20
2019-01-10T03:53:27.384Z,96.30
2019-01-10T03:54:31.293Z,96.40
2019-01-10T03:55:35.309Z,96.30
2019-01-10T03:56:39.237Z,96.50
2019-01-10T03:57:43.033Z,95.60
2019-01-10T03:58:47.090Z,96.80
2019-01-10T03:59:52.804Z,96.20
2019-01-10T04:00:56.773Z,96.80
2019-01-10T04:02:00.692Z,96.50
2019-01-10T04:03:04.592Z,96.40
2019-01-10T04:04:08.662Z,96.50
2019-01-10T04:05:12.797Z,96.10
2019-01-10T04:06:16.674Z,96.50
2019-01-10T04:07:20.544Z,96.20
2019-01-10T04:08:24.561Z,96.50
2019-01-10T04:09:28.767Z,97.00
2019-01-10T04:10:32.991Z,96.60
2019-01-10T04:11:36.841Z,96.00
2019-01-10T04:12:40.955Z,96.30
2019-01-10T04:13:44.865Z,95.70
2019-01-10T04:14:48.877Z,96.60
2019-01-10T04:15:53.005Z,96.60
2019-01-10T04:16:56.803Z,96.10
2019-01-10T04:18:00.801Z,96.50
2019-01-10T04:19:04.649Z,96.50
2019-01-10T04:20:09.784Z,95.50
2019-01-10T04:21:17.528Z,95.80
2019-01-10T04:22:19.451Z,96.10
2019-01-10T04:23:23.490Z,96.30
2019-01-10T04:24:27.745Z,95.00
2019-01-10T04:25:31.661Z,95.60
2019-01-10T04:26:35.550Z,95.20
2019-01-10T04:27:39.347Z,95.50
2019-01-10T04:28:43.345Z,95.30
2019-01-10T04:29:47.387Z,95.50
2019-01-10T04:30:51.265Z,95.40
2019-01-10T04:31:55.375Z,95.90
2019-01-10T04:32:59.465Z,96.50
2019-01-10T04:34:03.343Z,96.60
2019-01-10T04:35:07.355Z,96.30
2019-01-10T04:36:11.341Z,95.70
2019-01-10T04:37:15.463Z,95.70
2019-01-10T04:38:19.595Z,96.20
2019-01-10T04:39:23.455Z,96.30
2019-01-10T04:40:27.223Z,95.00
2019-01-10T04:41:31.107Z,95.00
2019-01-10T04:42:35.107Z,95.20
2019-01-10T04:43:39.237Z,95.30
2019-01-10T04:44:43.139Z,95.30
2019-01-10T04:45:47.224Z,94.90
2019-01-10T04:46:51.185Z,95.20
2019-01-10T04:47:55.109Z,95.20
2019-01-10T04:48:59.006Z,95.40
2019-01-10T04:50:02.891Z,95.30
2019-01-10T04:51:06.709Z,95.20
2019-01-10T04:52:10.704Z,94.80
2019-01-10T04:53:14.478Z,95.20
2019-01-10T04:54:18.577Z,95.10
2019-01-10T04:55:22.708Z,95.50
2019-01-10T04:56:26.634Z,95.20
2019-01-10T04:57:30.626Z,95.40
2019-01-10T04:58:34.411Z,95.50
2019-01-10T04:59:38.280Z,95.50
2019-01-10T05:00:42.293Z,94.80
2019-01-10T05:01:46.305Z,95.30
2019-01-10T05:02:50.098Z,95.40
2019-01-10T05:03:54.448Z,95.50
2019-01-10T05:04:58.375Z,95.10
2019-01-10T05:06:02.246Z,94.80
2019-01-10T05:07:06.285Z,95.10
2019-01-10T05:08:10.399Z,95.50
2019-01-10T05:09:14.479Z,95.30
2019-01-10T05:10:18.487Z,95.40
2019-01-10T05:11:22.509Z,95.40
2019-01-10T05:12:26.627Z,95.40
2019-01-10T05:13:30.785Z,94.70
2019-01-10T05:14:34.847Z,94.80
2019-01-10T05:15:38.947Z,94.60
2019-01-10T05:16:42.871Z,94.80
2019-01-10T05:17:46.845Z,95.40
2019-01-10T05:18:51.123Z,95.10
2019-01-10T05:19:55.002Z,94.80
2019-01-10T05:20:59.007Z,94.90
2019-01-10T05:22:03.010Z,94.80
2019-01-10T05:23:07.120Z,95.10
2019-01-10T05:24:10.898Z,95.80
2019-01-10T05:25:15.031Z,95.60
2019-01-10T05:26:19.020Z,95.60
2019-01-10T05:27:22.987Z,96.00
2019-01-10T05:28:27.097Z,95.90
2019-01-10T05:29:31.123Z,95.40
2019-01-10T05:30:35.415Z,95.00
2019-01-10T05:31:39.425Z,95.50
2019-01-10T05:32:43.459Z,95.70
2019-01-10T05:33:47.583Z,95.60
2019-01-10T05:34:51.578Z,95.90
2019-01-10T05:35:55.641Z,95.90
2019-01-10T05:36:59.665Z,95.50
2019-01-10T05:38:03.749Z,95.70
2019-01-10T05:39:09.271Z,95.90
2019-01-10T05:40:13.277Z,95.80
2019-01-10T05:41:17.432Z,96.00
2019-01-10T05:42:21.375Z,95.40
2019-01-10T05:43:25.447Z,95.40
2019-01-10T05:44:29.386Z,95.70
2019-01-10T05:45:33.463Z,95.90
2019-01-10T05:46:37.344Z,96.60
2019-01-10T05:47:42.974Z,96.60
2019-01-10T05:48:47.490Z,97.80
2019-01-10T05:49:51.498Z,98.00
2019-01-10T05:50:55.589Z,99.70
2019-01-10T05:51:59.520Z,99.90
2019-01-10T05:53:03.662Z,99.90
2019-01-10T05:54:07.818Z,99.90
2019-01-10T05:55:14.384Z,99.90
2019-01-10T05:56:18.715Z,99.90
2019-01-10T05:57:22.638Z,99.80
2019-01-10T05:58:26.735Z,99.50
2019-01-10T05:59:30.693Z,99.60
2019-01-10T06:00:34.586Z,99.20
2019-01-10T06:01:38.722Z,99.90
2019-01-10T06:02:42.801Z,98.80
2019-01-10T06:03:53.292Z,99.40
2019-01-10T06:04:52.741Z,99.90
2019-01-10T06:05:56.887Z,98.90
2019-01-10T06:07:00.851Z,99.70
2019-01-10T06:08:04.839Z,98.90
2019-01-10T06:09:09.396Z,98.80
2019-01-10T06:10:18.982Z,99.50
2019-01-10T06:11:23.077Z,99.00
2019-01-10T06:12:27.137Z,97.90
2019-01-10T06:13:31.252Z,98.50
2019-01-10T06:14:35.677Z,98.50
2019-01-10T06:15:39.846Z,98.40
2019-01-10T06:16:45.187Z,97.20
2019-01-10T06:17:49.527Z,97.70
2019-01-10T06:18:53.639Z,97.60
2019-01-10T06:19:57.543Z,97.60
2019-01-10T06:21:01.646Z,97.60
2019-01-10T06:22:05.643Z,97.30
2019-01-10T06:23:09.565Z,96.30
2019-01-10T06:24:13.667Z,96.10
2019-01-10T06:25:17.801Z,96.90
2019-01-10T06:26:21.739Z,97.10
2019-01-10T06:27:25.749Z,96.70
2019-01-10T06:28:30.553Z,96.70
2019-01-10T06:29:34.712Z,97.70
2019-01-10T06:30:38.801Z,97.40
2019-01-10T06:31:42.907Z,96.90
2019-01-10T06:32:47.001Z,96.60
2019-01-10T06:33:51.015Z,96.70
2019-01-10T06:34:55.111Z,96.80
2019-01-10T06:35:59.126Z,96.40
2019-01-10T06:37:03.539Z,95.80
2019-01-10T06:38:07.582Z,96.50
2019-01-10T06:39:11.491Z,96.70
2019-01-10T06:40:17.889Z,96.50
2019-01-10T06:41:21.921Z,95.50
2019-01-10T06:42:25.986Z,96.50
2019-01-10T06:43:30.031Z,96.80
2019-01-10T06:44:34.038Z,96.00
2019-01-10T06:45:38.188Z,96.70
2019-01-10T06:46:42.297Z,97.50
2019-01-10T06:47:46.537Z,96.70
2019-01-10T06:48:50.588Z,96.60
2019-01-10T06:49:54.674Z,96.70
2019-01-10T06:50:58.646Z,97.40
2019-01-10T06:52:03.042Z,97.50
2019-01-10T06:53:07.029Z,97.90
2019-01-10T06:54:11.051Z,96.70
2019-01-10T06:55:15.067Z,96.50
2019-01-10T06:56:19.089Z,96.60
2019-01-10T06:57:23.160Z,97.80
2019-01-10T06:58:27.147Z,97.90
2019-01-10T06:59:31.180Z,97.70
2019-01-10T07:00:35.232Z,98.00
2019-01-10T07:01:39.240Z,97.90
2019-01-10T07:02:43.445Z,98.30
2019-01-10T07:03:47.559Z,99.00
2019-01-10T07:04:51.643Z,99.10
2019-01-10T07:05:55.971Z,99.90
2019-01-10T07:06:59.970Z,99.90
2019-01-10T07:08:03.995Z,99.90
2019-01-10T07:09:08.970Z,99.90
2019-01-10T07:10:16.029Z,99.90
2019-01-10T07:11:20.152Z,99.90
2019-01-10T07:12:24.110Z,99.90
2019-01-10T07:13:28.212Z,99.90
2019-01-10T07:14:32.251Z,99.90
2019-01-10T07:15:36.227Z,99.90
2019-01-10T07:16:39.998Z,99.90
2019-01-10T07:17:44.178Z,99.90
2019-01-10T07:18:48.175Z,99.90
2019-01-10T07:19:52.093Z,99.90
2019-01-10T07:20:55.969Z,99.90
2019-01-10T07:22:00.117Z,99.90
2019-01-10T07:23:23.184Z,99.90
2019-01-10T07:24:27.538Z,99.90
2019-01-10T07:25:31.536Z,99.90
2019-01-10T07:26:35.683Z,99.90
2019-01-10T07:27:39.751Z,99.90
2019-01-10T07:28:44.193Z,99.90
2019-01-10T07:29:52.935Z,99.90
2019-01-10T07:30:58.445Z,99.90
2019-01-10T07:32:02.430Z,99.90
2019-01-10T07:33:06.539Z,99.90
2019-01-10T07:34:10.481Z,99.90
2019-01-10T07:35:14.567Z,99.90
2019-01-10T07:36:18.569Z,99.90
2019-01-10T07:37:22.494Z,99.90
2019-01-10T07:38:26.997Z,99.90
2019-01-10T07:39:32.605Z,99.90
2019-01-10T07:40:39.927Z,99.90
2019-01-10T07:41:43.933Z,99.90
2019-01-10T07:42:48.015Z,99.90
2019-01-10T07:43:52.007Z,99.90
2019-01-10T07:45:02.612Z,99.90
2019-01-10T07:46:05.670Z,99.90
2019-01-10T07:47:09.683Z,99.90
2019-01-10T07:48:13.573Z,99.90
2019-01-10T07:49:21.586Z,99.90
2019-01-10T07:50:36.296Z,99.90
2019-01-10T07:51:46.670Z,99.90
2019-01-10T07:52:50.494Z,99.90
2019-01-10T07:53:54.289Z,99.90
2019-01-10T07:54:58.296Z,99.90
2019-01-10T07:56:02.282Z,99.90
2019-01-10T07:57:06.345Z,99.90
2019-01-10T07:58:10.281Z,99.90
2019-01-10T07:59:14.412Z,99.90
2019-01-10T08:00:18.423Z,99.70
2019-01-10T08:01:22.306Z,99.90
2019-01-10T08:02:26.239Z,99.90
2019-01-10T08:03:30.245Z,99.90
2019-01-10T08:04:34.253Z,99.90
2019-01-10T08:05:38.479Z,99.90
2019-01-10T08:06:42.467Z,99.70
2019-01-10T08:07:46.703Z,99.90
2019-01-10T08:08:50.613Z,99.50
2019-01-10T08:09:54.681Z,99.90
2019-01-10T08:10:58.690Z,99.30
2019-01-10T08:12:02.693Z,99.90
2019-01-10T08:13:06.712Z,99.90
2019-01-10T08:14:10.738Z,99.90
2019-01-10T08:15:17.675Z,99.90
2019-01-10T08:16:21.463Z,99.90
2019-01-10T08:17:25.471Z,99.80
2019-01-10T08:18:29.361Z,99.10
2019-01-10T08:19:33.391Z,99.10
2019-01-10T08:20:37.269Z,99.90
2019-01-10T08:22:00.407Z,99.50
2019-01-10T08:23:04.424Z,99.90
2019-01-10T08:24:08.517Z,99.40
2019-01-10T08:25:12.445Z,99.10
2019-01-10T08:26:16.547Z,99.70
2019-01-10T08:27:20.516Z,99.90
2019-01-10T08:28:24.399Z,99.90
2019-01-10T08:29:28.526Z,99.10
2019-01-10T08:30:32.603Z,98.70
2019-01-10T08:31:36.495Z,98.80
2019-01-10T08:32:40.404Z,98.50
2019-01-10T08:33:44.421Z,99.60
2019-01-10T08:34:48.522Z,98.80
2019-01-10T08:35:52.500Z,98.40
2019-01-10T08:36:56.502Z,98.60
2019-01-10T08:38:00.383Z,98.00
2019-01-10T08:39:06.547Z,97.90
2019-01-10T08:40:10.579Z,97.40
2019-01-10T08:41:14.589Z,98.00
2019-01-10T08:42:18.700Z,97.90
2019-01-10T08:43:22.677Z,97.10
2019-01-10T08:44:26.751Z,96.60
2019-01-10T08:45:30.859Z,97.70
2019-01-10T08:46:34.963Z,97.60
2019-01-10T08:47:38.906Z,98.40
2019-01-10T08:48:43.030Z,97.90
2019-01-10T08:49:46.955Z,97.80
2019-01-10T08:50:50.843Z,97.60
2019-01-10T08:51:54.929Z,96.70
2019-01-10T08:52:58.955Z,96.70
2019-01-10T08:54:03.051Z,97.10
2019-01-10T08:55:07.151Z,97.50
2019-01-10T08:56:11.050Z,97.40
2019-01-10T08:57:15.074Z,96.70
2019-01-10T08:58:19.202Z,96.40
2019-01-10T08:59:23.117Z,96.70
2019-01-10T09:00:27.221Z,97.00
2019-01-10T09:01:31.136Z,96.80
2019-01-10T09:02:36.116Z,97.00
2019-01-10T09:03:40.225Z,97.20
2019-01-10T09:04:44.149Z,96.70
2019-01-10T09:05:48.273Z,96.70
2019-01-10T09:06:52.175Z,97.10
2019-01-10T09:07:56.103Z,96.20
2019-01-10T09:09:01.110Z,95.90
2019-01-10T09:10:07.379Z,96.20
2019-01-10T09:11:11.385Z,96.70
2019-01-10T09:12:15.276Z,96.10
2019-01-10T09:13:19.298Z,95.90
2019-01-10T09:14:23.307Z,95.30
2019-01-10T09:15:34.316Z,95.80
2019-01-10T09:16:32.885Z,95.80
2019-01-10T09:17:37.059Z,95.00
2019-01-10T09:18:41.151Z,95.80
2019-01-10T09:19:45.150Z,96.10
2019-01-10T09:20:49.011Z,95.50
2019-01-10T09:21:53.155Z,95.80
2019-01-10T09:22:56.927Z,95.00
2019-01-10T09:24:00.932Z,94.70
2019-01-10T09:25:05.044Z,95.10
2019-01-10T09:26:09.013Z,95.30
2019-01-10T09:27:12.807Z,94.40
2019-01-10T09:28:16.719Z,94.60
2019-01-10T09:29:20.497Z,95.30
2019-01-10T09:30:25.097Z,94.80
2019-01-10T09:31:28.875Z,95.00
2019-01-10T09:32:32.891Z,94.60
2019-01-10T09:33:39.589Z,95.70
2019-01-10T09:34:42.497Z,95.10
2019-01-10T09:35:46.615Z,94.60
2019-01-10T09:36:50.517Z,95.00
2019-01-10T09:37:54.440Z,94.80
2019-01-10T09:38:58.435Z,94.40
2019-01-10T09:40:02.544Z,94.00
2019-01-10T09:41:06.559Z,93.60
2019-01-10T09:42:10.566Z,93.30
2019-01-10T09:43:14.578Z,93.90
2019-01-10T09:44:18.574Z,93.40
2019-01-10T09:45:24.127Z,92.80
2019-01-10T09:46:28.023Z,93.00
2019-01-10T09:47:32.053Z,93.70
2019-01-10T09:48:36.039Z,93.50
2019-01-10T09:49:40.029Z,93.40
2019-01-10T09:50:44.032Z,94.00
2019-01-10T09:51:47.930Z,93.50
2019-01-10T09:52:52.352Z,93.30
2019-01-10T09:53:56.243Z,93.00
2019-01-10T09:55:00.308Z,93.60
2019-01-10T09:56:04.477Z,93.10
2019-01-10T09:57:08.742Z,93.30
2019-01-10T09:58:12.513Z,94.10
2019-01-10T09:59:16.375Z,93.20
2019-01-10T10:00:22.689Z,93.00
2019-01-10T10:01:26.569Z,92.70
2019-01-10T10:02:30.461Z,93.00
2019-01-10T10:03:34.588Z,93.50
2019-01-10T10:04:38.495Z,92.90
2019-01-10T10:05:42.302Z,93.30
2019-01-10T10:06:46.201Z,93.40
2019-01-10T10:07:50.538Z,93.10
2019-01-10T10:08:54.619Z,92.70
2019-01-10T10:09:58.415Z,93.30
2019-01-10T10:11:02.575Z,93.30
2019-01-10T10:12:06.588Z,92.10
2019-01-10T10:13:10.531Z,92.50
2019-01-10T10:14:14.548Z,92.40
2019-01-10T10:15:18.848Z,92.80
2019-01-10T10:16:22.956Z,92.80
2019-01-10T10:17:26.735Z,92.40
2019-01-10T10:18:31.115Z,93.10
2019-01-10T10:19:35.107Z,92.70
2019-01-10T10:20:39.346Z,93.20
2019-01-10T10:21:43.485Z,93.10
2019-01-10T10:22:47.716Z,93.40
2019-01-10T10:23:51.624Z,93.20
2019-01-10T10:24:55.665Z,93.20
2019-01-10T10:25:59.752Z,92.20
2019-01-10T10:27:03.747Z,92.30
2019-01-10T10:28:07.763Z,92.40
2019-01-10T10:29:11.781Z,92.30
2019-01-10T10:30:17.888Z,92.00
2019-01-10T10:31:21.840Z,92.40
2019-01-10T10:32:26.414Z,92.70
2019-01-10T10:33:30.503Z,91.90
2019-01-10T10:34:34.503Z,91.90
2019-01-10T10:35:38.887Z,92.30
2019-01-10T10:36:42.785Z,91.90
2019-01-10T10:37:46.774Z,92.40
2019-01-10T10:38:50.754Z,92.40
2019-01-10T10:39:54.809Z,92.10
2019-01-10T10:40:58.729Z,92.00
2019-01-10T10:42:04.609Z,91.90
2019-01-10T10:43:08.585Z,92.40
2019-01-10T10:44:12.587Z,91.80
2019-01-10T10:45:17.779Z,92.30
2019-01-10T10:46:21.799Z,91.80
2019-01-10T10:47:25.784Z,92.20
2019-01-10T10:48:29.700Z,91.80
2019-01-10T10:49:33.762Z,91.90
2019-01-10T10:50:37.883Z,91.90
2019-01-10T10:51:42.153Z,91.80
2019-01-10T10:52:45.998Z,91.90
2019-01-10T10:53:50.116Z,91.50
2019-01-10T10:54:54.287Z,91.90
2019-01-10T10:55:58.399Z,92.20
2019-01-10T10:57:02.387Z,92.00
2019-01-10T10:58:06.387Z,92.30
2019-01-10T10:59:10.435Z,91.40
2019-01-10T11:00:17.600Z,91.10
2019-01-10T11:01:21.495Z,91.50
2019-01-10T11:02:25.447Z,91.80
2019-01-10T11:03:29.470Z,91.80
2019-01-10T11:04:33.421Z,91.50
2019-01-10T11:05:37.450Z,91.50
2019-01-10T11:06:41.485Z,91.80
2019-01-10T11:07:45.387Z,91.50
2019-01-10T11:08:49.271Z,92.30
2019-01-10T11:09:53.266Z,92.10
2019-01-10T11:10:57.296Z,92.50
2019-01-10T11:12:01.301Z,92.00
2019-01-10T11:13:05.368Z,91.60
2019-01-10T11:14:09.163Z,91.80
2019-01-10T11:15:13.009Z,92.50
2019-01-10T11:16:16.892Z,92.00
2019-01-10T11:17:20.855Z,91.80
2019-01-10T11:18:24.842Z,91.10
2019-01-10T11:19:28.943Z,92.00
2019-01-10T11:20:32.971Z,90.90
2019-01-10T11:21:36.776Z,91.20
2019-01-10T11:22:40.769Z,91.00
2019-01-10T11:23:44.871Z,91.70
2019-01-10T11:24:48.775Z,90.90
2019-01-10T11:25:52.782Z,91.60
2019-01-10T11:26:56.692Z,91.80
2019-01-10T11:28:00.679Z,91.30
2019-01-10T11:29:04.689Z,91.50
2019-01-10T11:30:10.441Z,92.40
2019-01-10T11:31:14.370Z,90.90
2019-01-10T11:32:18.405Z,90.60
2019-01-10T11:33:22.398Z,91.10
2019-01-10T11:34:26.400Z,91.60
2019-01-10T11:35:30.288Z,91.10
2019-01-10T11:36:34.420Z,91.40
2019-01-10T11:37:38.400Z,91.30
2019-01-10T11:38:42.552Z,91.40
2019-01-10T11:39:46.858Z,91.30
2019-01-10T11:40:50.774Z,91.10
2019-01-10T11:41:54.665Z,91.10
2019-01-10T11:42:58.850Z,91.60
2019-01-10T11:44:02.665Z,91.50
2019-01-10T11:45:08.393Z,91.70
2019-01-10T11:46:19.547Z,91.40
2019-01-10T11:47:18.845Z,91.30
2019-01-10T11:48:22.973Z,91.70
2019-01-10T11:49:26.763Z,91.50
2019-01-10T11:50:30.766Z,92.20
2019-01-10T11:51:34.653Z,91.50
2019-01-10T11:52:38.662Z,92.40
2019-01-10T11:53:42.835Z,91.70
2019-01-10T11:54:46.737Z,91.20
2019-01-10T11:55:50.748Z,90.30
2019-01-10T11:56:54.773Z,90.20
2019-01-10T11:57:58.670Z,91.10
2019-01-10T11:59:02.816Z,90.80
2019-01-10T12:00:10.472Z,90.10
2019-01-10T12:01:14.534Z,90.50
2019-01-10T12:02:18.431Z,91.50
2019-01-10T12:03:22.526Z,91.70
2019-01-10T12:04:26.629Z,91.80
2019-01-10T12:05:30.540Z,91.00
2019-01-10T12:06:34.531Z,90.70
2019-01-10T12:07:38.537Z,90.90
2019-01-10T12:08:42.453Z,90.50
2019-01-10T12:09:46.563Z,90.70
2019-01-10T12:10:50.473Z,90.30
2019-01-10T12:11:54.489Z,90.70
2019-01-10T12:12:58.461Z,90.90
2019-01-10T12:14:02.457Z,91.00
2019-01-10T12:15:07.199Z,90.70
2019-01-10T12:16:11.211Z,91.10
2019-01-10T12:17:15.391Z,90.60
2019-01-10T12:18:19.292Z,91.00
2019-01-10T12:19:23.281Z,91.10
2019-01-10T12:20:27.527Z,90.50
2019-01-10T12:21:31.349Z,91.00
2019-01-10T12:22:35.463Z,90.90
2019-01-10T12:23:39.369Z,91.00
2019-01-10T12:24:43.381Z,90.90
2019-01-10T12:25:47.512Z,92.10
2019-01-10T12:26:51.859Z,91.70
2019-01-10T12:27:55.868Z,91.50
2019-01-10T12:28:59.853Z,91.80
2019-01-10T12:30:03.696Z,91.70
2019-01-10T12:31:07.694Z,91.20
2019-01-10T12:32:11.788Z,91.80
2019-01-10T12:33:15.731Z,92.40
2019-01-10T12:34:19.615Z,92.00
2019-01-10T12:35:24.931Z,91.50
2019-01-10T12:36:29.070Z,91.70
2019-01-10T12:37:32.971Z,91.80
2019-01-10T12:38:36.809Z,91.90
2019-01-10T12:39:40.661Z,91.60
2019-01-10T12:40:44.843Z,92.10
2019-01-10T12:41:48.751Z,92.10
2019-01-10T12:42:52.788Z,92.10
2019-01-10T12:43:57.161Z,91.30
2019-01-10T12:45:01.155Z,91.80
2019-01-10T12:46:06.050Z,91.40
2019-01-10T12:47:10.230Z,91.50
2019-01-10T12:48:14.169Z,91.50
2019-01-10T12:49:18.289Z,91.20
2019-01-10T12:50:24.447Z,92.00
2019-01-10T12:51:28.327Z,92.20
2019-01-10T12:52:35.265Z,92.90
2019-01-10T12:53:37.972Z,92.40
2019-01-10T12:54:42.167Z,93.00
2019-01-10T12:55:46.061Z,92.70
2019-01-10T12:56:49.852Z,93.40
2019-01-10T12:57:53.871Z,93.70
2019-01-10T12:58:57.767Z,93.40
2019-01-10T13:00:01.827Z,92.60
2019-01-10T13:01:05.945Z,92.80
2019-01-10T13:02:09.907Z,92.50
2019-01-10T13:03:13.824Z,92.30
2019-01-10T13:04:17.761Z,92.30
2019-01-10T13:05:21.566Z,91.90
2019-01-10T13:06:25.471Z,92.00
2019-01-10T13:07:29.441Z,92.20
2019-01-10T13:08:33.336Z,91.40
2019-01-10T13:09:37.445Z,91.60
2019-01-10T13:10:41.546Z,91.60
2019-01-10T13:11:45.333Z,91.60
2019-01-10T13:12:50.101Z,91.50
2019-01-10T13:13:54.262Z,90.80
2019-01-10T13:14:58.255Z,91.10
2019-01-10T13:16:02.254Z,91.00
2019-01-10T13:17:06.047Z,90.90
2019-01-10T13:18:09.973Z,90.90
2019-01-10T13:19:13.994Z,90.30
2019-01-10T13:20:18.012Z,90.60
2019-01-10T13:21:21.926Z,90.10
2019-01-10T13:22:25.941Z,90.40
2019-01-10T13:23:29.990Z,90.40
2019-01-10T13:24:33.951Z,90.40
2019-01-10T13:25:38.027Z,90.10
2019-01-10T13:26:42.113Z,89.80
2019-01-10T13:27:46.119Z,90.10
2019-01-10T13:28:50.119Z,90.40
2019-01-10T13:29:54.029Z,90.40
2019-01-10T13:30:58.022Z,90.10
2019-01-10T13:32:02.139Z,90.70
2019-01-10T13:33:06.021Z,90.10
2019-01-10T13:34:09.820Z,90.00
2019-01-10T13:35:13.875Z,90.80
2019-01-10T13:36:17.678Z,90.50
2019-01-10T13:37:21.471Z,90.60
2019-01-10T13:38:25.465Z,90.50
2019-01-10T13:39:29.461Z,90.00
2019-01-10T13:40:33.459Z,90.80
2019-01-10T13:41:38.031Z,90.50
2019-01-10T13:42:41.913Z,90.20
2019-01-10T13:43:45.811Z,90.10
2019-01-10T13:44:49.821Z,90.20
2019-01-10T13:45:55.450Z,90.10
2019-01-10T13:46:59.586Z,89.50
2019-01-10T13:48:03.715Z,90.10